Nearby METAR Reports

 

KSJC - San Jose, California, USA
Distance from station: NE 9mi, 14km
Updated: 11,17/2019 7:53pm
Few Clouds
Few Clouds
 Wind from NNW
Wind: NNW 6 mph , 9 km/h
Temperature: 70°F , 21°C
Dew Point: 46°F , 8°C
Humidity: 43%
Barometer: 30.00 inHg , 1015.9 hPa
Clouds: Few Clouds
Visibility: 10 miles , 16 km
Cloud details: Few Clouds 8000 ft
Few Clouds 16000 ft
2019/11/18 00:53 KSJC 180053Z 34005KT 10SM FEW080 FEW160 21/08 A3000 RMK AO2 SLP158 T02060083 $
KNUQ - Moffett Nas/Mtn, California, USA
Distance from station: N 9mi, 14km
Updated: 11,17/2019 7:56pm

 
Barometer: 30.01 inHg , 1016.3 hPa
2019/11/18 00:56 KNUQ 180056Z A3001 RMK AO2 SLP166 PWINO $
KPAO - Palo Alto, California, USA
Distance from station: NNW 14mi, 23km
Updated: 11,17/2019 7:47pm
Clear
Clear
 Wind from NW
Wind: NW 6 mph , 9 km/h
Temperature: 68°F , 20°C
Dew Point: 46°F , 8°C
Humidity: 46%
Barometer: 30.01 inHg , 1016.3 hPa
Clouds: Clear
Visibility: 10 miles , 16 km
2019/11/18 00:47 KPAO 180047Z 32005KT 10SM SKC 20/08 A3001
 
KRHV - San Jose/Reid, California, USA
Distance from station: ENE 12mi, 19km
Updated: 11,17/2019 7:50pm
Clear
Clear
 Wind from calm
Wind: Calm
Temperature: 72°F , 22°C
Dew Point: 50°F , 10°C
Humidity: 47%
Barometer: 30.01 inHg , 1016.3 hPa
Clouds: Clear
Visibility: 10 miles , 16 km
2019/11/18 00:50 KRHV 180050Z 00000KT 10SM SKC 22/10 A3001
KOAK - Oakland, California, USA
Distance from station: NNW 31mi, 50km
Updated: 11,17/2019 7:53pm
Few Clouds
Few Clouds
 Wind from NW
Wind: NW 6 mph , 9 km/h
Temperature: 66°F , 19°C
Dew Point: 50°F , 10°C
Humidity: 56%
Barometer: 30.00 inHg , 1015.9 hPa
Clouds: Few Clouds
Visibility: 10 miles , 16 km
Cloud details: Few Clouds 18000 ft
Few Clouds 25000 ft
2019/11/18 00:53 KOAK 180053Z 32005KT 10SM FEW180 FEW250 19/10 A3000 RMK AO2 SLP159 T01890100 $
KSQL - San Carlos Airpo, California, USA
Distance from station: NW 21mi, 34km
Updated: 11,17/2019 7:58pm
Clear
Clear
 Wind from varies
Wind: varies 3 mph , 6 km/h
Temperature: 72°F , 22°C
Dew Point: 45°F , 7°C
Humidity: 38%
Barometer: 30.01 inHg , 1016.3 hPa
Clouds: Clear
Visibility: 10 miles , 16 km
2019/11/18 00:58 KSQL 180058Z VRB03KT 10SM SKC 22/07 A3001
 
KSFO - San Francisco, California, USA
Distance from station: NW 30mi, 49km
Updated: 11,17/2019 7:56pm
Few Clouds
Few Clouds
 Wind from WNW
Wind: WNW 10 mph , 17 km/h
Temperature: 66°F , 19°C
Dew Point: 48°F , 9°C
Humidity: 52%
Barometer: 30.00 inHg , 1015.9 hPa
Clouds: Few Clouds
Visibility: 10 miles , 16 km
Cloud details: Few Clouds 20000 ft
2019/11/18 00:56 KSFO 180056Z 29009KT 10SM FEW200 19/09 A3000 RMK AO2 SLP157 T01940089 $
KE16 - San Martin, California, USA
Distance from station: ESE 27mi, 43km
Updated: 11,14/2019 4:35am
NOT Current
Overcast
Overcast
 Wind from SE
Wind: SE 7 mph , 11 km/h
Temperature: 54°F , 12°C
Dew Point: 50°F , 10°C
Humidity: 88%
Barometer: 30.05 inHg , 1017.6 hPa
Clouds: Overcast
Visibility: 10 miles , 16 km
Cloud details: Overcast 1400 ft
2019/11/14 09:35 KE16 140935Z AUTO 13006KT 10SM OVC014 12/10 A3005 RMK AO2
KWVI - Watsonville, California, USA
Distance from station: SSE 27mi, 44km
Updated: 11,17/2019 7:53pm
Clear
Clear
 Wind from ENE
Wind: ENE 8 mph , 13 km/h
Temperature: 73°F , 23°C
Dew Point: 48°F , 9°C
Humidity: 41%
Barometer: 29.98 inHg , 1015.2 hPa
Clouds: Clear
Visibility: 10 miles , 16 km
2019/11/18 00:53 KWVI 180053Z AUTO 06007KT 10SM CLR 23/09 A2998 RMK AO2 SLP152 T02330089 $
 
KHAF - Half Moon Bay, California, USA
Distance from station: WNW 31mi, 50km
Updated: 11,17/2019 8:00pm
Clear
Clear
 Wind from NW
Wind: NW 12 mph , 19 km/h
Temperature: 57°F , 14°C
Dew Point: 52°F , 11°C
Humidity: 82%
Barometer: 30.00 inHg , 1015.9 hPa
Clouds: Clear
Visibility: 7 miles , 11 km
2019/11/18 01:00 KHAF 180100Z AUTO 32010KT 7SM CLR 14/11 A3000 RMK AO2
KHWD - Hayward, California, USA
Distance from station: N 28mi, 44km
Updated: 11,17/2019 7:54pm
Clear
Clear
 Wind from NW
Wind: NW 5 mph , 7 km/h
Temperature: 70°F , 21°C
Dew Point: 48°F , 9°C
Humidity: 46%
Barometer: 29.99 inHg , 1015.6 hPa
Clouds: Clear
Visibility: 10 miles , 16 km
2019/11/18 00:54 KHWD 180054Z 32004KT 10SM CLR 21/09 A2999 RMK AO2 SLP165 T02110094
KLVK - Livermore, California, USA
Distance from station: NNE 31mi, 51km
Updated: 11,17/2019 7:53pm
Clear
Clear
 Wind from ENE
Wind: ENE 10 mph , 17 km/h
Temperature: 68°F , 20°C
Dew Point: 46°F , 8°C
Humidity: 46%
Barometer: 30.01 inHg , 1016.3 hPa
Clouds: Clear
Visibility: 10 miles , 16 km
2019/11/18 00:53 KLVK 180053Z 07009KT 10SM CLR 20/08 A3001 RMK AO2 SLP159 T02000078 $